createdAt,value
2018-07-27T00:02:27.026Z,99.90
2018-07-27T00:04:55.201Z,99.90
2018-07-27T00:09:51.424Z,99.90
2018-07-27T00:12:19.629Z,99.90
2018-07-27T00:14:47.792Z,99.90
2018-07-27T00:17:15.977Z,99.90
2018-07-27T00:19:44.133Z,99.90
2018-07-27T00:22:12.312Z,99.90
2018-07-27T00:24:40.445Z,99.90
2018-07-27T00:27:08.626Z,99.90
2018-07-27T00:29:36.865Z,99.90
2018-07-27T00:32:05.034Z,99.90
2018-07-27T00:34:33.214Z,99.90
2018-07-27T00:37:01.414Z,99.90
2018-07-27T00:39:29.593Z,99.90
2018-07-27T00:41:57.750Z,99.90
2018-07-27T00:44:25.965Z,99.90
2018-07-27T00:46:54.146Z,99.90
2018-07-27T00:49:22.318Z,99.90
2018-07-27T00:51:50.501Z,99.90
2018-07-27T00:54:18.666Z,99.90
2018-07-27T00:56:46.880Z,99.90
2018-07-27T00:59:15.021Z,99.90
2018-07-27T01:01:43.197Z,99.90
2018-07-27T01:04:11.388Z,99.90
2018-07-27T01:09:09.185Z,99.90
2018-07-27T01:11:37.342Z,99.90
2018-07-27T01:14:05.637Z,99.90
2018-07-27T01:16:33.807Z,99.90
2018-07-27T01:21:29.916Z,99.90
2018-07-27T01:23:58.094Z,99.90
2018-07-27T01:26:26.249Z,99.90
2018-07-27T01:28:54.445Z,99.90
2018-07-27T01:31:22.646Z,99.90
2018-07-27T01:33:50.833Z,99.90
2018-07-27T01:36:19.038Z,99.90
2018-07-27T01:38:47.309Z,99.90
2018-07-27T01:41:15.606Z,99.90
2018-07-27T01:43:43.902Z,99.90
2018-07-27T01:46:12.226Z,99.90
2018-07-27T01:48:40.514Z,99.90
2018-07-27T01:51:08.834Z,99.90
2018-07-27T01:53:37.148Z,99.90
2018-07-27T01:56:05.478Z,99.90
2018-07-27T01:58:33.743Z,99.90
2018-07-27T02:01:02.040Z,99.90
2018-07-27T02:03:30.394Z,99.90
2018-07-27T02:05:58.764Z,99.90
2018-07-27T02:08:26.998Z,99.90
2018-07-27T02:10:55.330Z,99.90
2018-07-27T02:13:23.766Z,99.90
2018-07-27T02:15:52.154Z,99.90
2018-07-27T02:18:20.472Z,99.90
2018-07-27T02:20:48.747Z,99.90
2018-07-27T02:23:17.080Z,99.90
2018-07-27T02:25:45.449Z,99.90
2018-07-27T02:28:13.823Z,99.90
2018-07-27T02:30:42.174Z,99.90
2018-07-27T02:33:10.496Z,99.90
2018-07-27T02:35:38.877Z,99.90
2018-07-27T02:38:07.242Z,99.90
2018-07-27T02:40:35.474Z,99.90
2018-07-27T02:43:03.722Z,99.90
2018-07-27T02:45:31.992Z,99.90
2018-07-27T02:48:00.283Z,99.90
2018-07-27T02:50:28.573Z,99.90
2018-07-27T02:52:56.851Z,99.90
2018-07-27T02:55:25.122Z,99.90
2018-07-27T02:57:53.398Z,99.90
2018-07-27T03:00:21.670Z,99.90
2018-07-27T03:02:49.995Z,99.90
2018-07-27T03:07:46.383Z,99.90
2018-07-27T03:10:14.766Z,99.90
2018-07-27T03:12:43.082Z,99.90
2018-07-27T03:15:11.333Z,99.90
2018-07-27T03:17:39.647Z,99.90
2018-07-27T03:20:07.906Z,99.90
2018-07-27T03:22:36.197Z,99.90
2018-07-27T03:25:04.642Z,99.90
2018-07-27T03:27:32.930Z,99.90
2018-07-27T03:30:01.195Z,99.90
2018-07-27T03:32:29.536Z,99.90
2018-07-27T03:34:57.798Z,99.90
2018-07-27T03:37:26.104Z,99.90
2018-07-27T03:39:54.395Z,99.90
2018-07-27T03:42:22.695Z,99.90
2018-07-27T03:44:51.077Z,99.90
2018-07-27T03:47:19.429Z,99.90
2018-07-27T03:49:47.722Z,99.90
2018-07-27T03:52:16.038Z,99.90
2018-07-27T03:57:12.441Z,99.90
2018-07-27T03:59:40.718Z,99.90
2018-07-27T04:02:09.035Z,99.90
2018-07-27T04:04:37.268Z,99.90
2018-07-27T04:07:05.565Z,99.90
2018-07-27T04:09:33.871Z,99.90
2018-07-27T04:12:02.192Z,99.90
2018-07-27T04:14:30.519Z,99.90
2018-07-27T04:16:58.742Z,99.90
2018-07-27T04:19:26.971Z,99.90
2018-07-27T04:24:23.281Z,99.90
2018-07-27T04:26:51.581Z,99.90
2018-07-27T04:29:19.910Z,99.90
2018-07-27T04:31:48.219Z,99.90
2018-07-27T04:34:16.490Z,99.90
2018-07-27T04:36:44.763Z,99.90
2018-07-27T04:39:13.074Z,99.90
2018-07-27T04:41:41.426Z,99.90
2018-07-27T04:44:09.831Z,99.90
2018-07-27T04:46:38.186Z,99.90
2018-07-27T04:49:06.530Z,99.90
2018-07-27T04:51:34.768Z,99.90
2018-07-27T04:56:31.342Z,99.90
2018-07-27T04:58:59.624Z,99.90
2018-07-27T05:01:27.957Z,99.90
2018-07-27T05:03:56.250Z,99.90
2018-07-27T05:08:58.638Z,99.90
2018-07-27T05:11:26.958Z,99.90
2018-07-27T05:13:55.244Z,99.90
2018-07-27T05:16:23.624Z,99.90
2018-07-27T05:18:51.925Z,99.90
2018-07-27T05:21:20.238Z,99.90
2018-07-27T05:23:48.559Z,99.90
2018-07-27T05:26:16.852Z,99.90
2018-07-27T05:28:45.132Z,99.90
2018-07-27T05:31:13.498Z,99.90
2018-07-27T05:33:41.826Z,99.90
2018-07-27T05:36:10.095Z,99.90
2018-07-27T05:41:06.485Z,99.90
2018-07-27T05:43:34.877Z,99.90
2018-07-27T05:46:03.201Z,99.90
2018-07-27T05:50:59.485Z,99.90
2018-07-27T05:53:27.854Z,99.90
2018-07-27T05:55:56.223Z,99.90
2018-07-27T05:58:24.614Z,99.90
2018-07-27T06:00:53.012Z,99.90
2018-07-27T06:03:21.328Z,99.90
2018-07-27T06:05:49.853Z,99.90
2018-07-27T06:08:18.243Z,99.90
2018-07-27T06:10:46.624Z,99.90
2018-07-27T06:13:14.954Z,99.90
2018-07-27T06:18:11.522Z,99.90
2018-07-27T06:20:39.848Z,99.90
2018-07-27T06:23:08.261Z,98.80
2018-07-27T06:25:36.645Z,97.00
2018-07-27T06:28:05.069Z,95.60
2018-07-27T06:30:33.426Z,94.90
2018-07-27T06:33:01.715Z,93.50
2018-07-27T06:35:30.126Z,92.40
2018-07-27T06:37:58.489Z,95.50
2018-07-27T06:40:26.763Z,93.10
2018-07-27T06:42:55.035Z,91.50
2018-07-27T06:45:23.355Z,88.20
2018-07-27T06:47:51.642Z,84.90
2018-07-27T06:50:20.010Z,83.00
2018-07-27T06:52:48.352Z,79.50
2018-07-27T06:55:16.665Z,76.40
2018-07-27T06:57:44.940Z,76.90
2018-07-27T07:00:13.216Z,75.40
2018-07-27T07:02:41.532Z,76.00
2018-07-27T07:05:09.821Z,70.10
2018-07-27T07:07:38.086Z,73.50
2018-07-27T07:10:06.399Z,71.20
2018-07-27T07:12:34.731Z,65.70
2018-07-27T07:15:03.053Z,64.10
2018-07-27T07:17:31.302Z,60.80
2018-07-27T07:19:59.545Z,59.20
2018-07-27T07:22:27.806Z,58.50
2018-07-27T07:24:56.095Z,59.70
2018-07-27T07:27:24.366Z,58.20
2018-07-27T07:29:52.682Z,55.80
2018-07-27T07:32:21.030Z,55.10
2018-07-27T07:39:45.533Z,53.30
2018-07-27T07:42:13.817Z,51.10
2018-07-27T07:44:42.086Z,53.80
2018-07-27T07:47:10.367Z,54.60
2018-07-27T07:49:38.650Z,54.00
2018-07-27T07:52:06.993Z,52.30
2018-07-27T07:54:35.299Z,51.90
2018-07-27T07:57:03.542Z,50.10
2018-07-27T07:59:31.828Z,50.60
2018-07-27T08:02:00.182Z,48.20
2018-07-27T08:04:28.449Z,47.70
2018-07-27T08:06:56.683Z,47.10
2018-07-27T08:09:24.933Z,44.60
2018-07-27T08:11:53.167Z,45.00
2018-07-27T08:14:21.428Z,45.00
2018-07-27T08:19:17.764Z,44.20
2018-07-27T08:21:46.121Z,44.60
2018-07-27T08:24:14.494Z,42.50
2018-07-27T08:26:44.630Z,43.80
2018-07-27T08:29:14.029Z,42.70
2018-07-27T08:31:43.485Z,41.90
2018-07-27T08:34:12.469Z,44.30
2018-07-27T08:39:11.181Z,44.40
2018-07-27T08:41:40.019Z,44.00
2018-07-27T08:44:09.503Z,44.10
2018-07-27T08:46:38.389Z,43.40
2018-07-27T08:49:06.894Z,45.30
2018-07-27T08:51:35.274Z,41.40
2018-07-27T08:54:03.539Z,42.00
2018-07-27T08:56:31.882Z,41.90
2018-07-27T08:59:00.206Z,41.70
2018-07-27T09:01:28.537Z,41.80
2018-07-27T09:03:56.858Z,42.30
2018-07-27T09:06:25.188Z,40.60
2018-07-27T09:08:53.600Z,42.90
2018-07-27T09:11:22.404Z,43.40
2018-07-27T09:13:51.142Z,44.00
2018-07-27T09:16:19.904Z,42.10
2018-07-27T09:18:48.416Z,41.30
2018-07-27T09:21:16.740Z,40.10
2018-07-27T09:23:45.040Z,39.20
2018-07-27T09:26:13.367Z,41.00
2018-07-27T09:28:41.670Z,40.20
2018-07-27T09:31:10.031Z,38.30
2018-07-27T09:33:38.444Z,39.20
2018-07-27T09:36:06.783Z,41.20
2018-07-27T09:38:35.087Z,40.20
2018-07-27T09:41:03.472Z,39.50
2018-07-27T09:43:31.871Z,40.20
2018-07-27T09:46:00.226Z,40.50
2018-07-27T09:48:28.725Z,40.30
2018-07-27T09:50:57.094Z,41.00
2018-07-27T09:53:25.408Z,42.30
2018-07-27T09:55:53.681Z,40.80
2018-07-27T09:58:21.947Z,40.00
2018-07-27T10:03:23.509Z,40.50
2018-07-27T10:05:51.855Z,39.30
2018-07-27T10:08:20.167Z,40.00
2018-07-27T10:10:48.514Z,37.40
2018-07-27T10:13:16.901Z,39.00
2018-07-27T10:15:45.222Z,39.20
2018-07-27T10:18:13.602Z,36.90
2018-07-27T10:20:41.972Z,38.90
2018-07-27T10:23:10.247Z,37.90
2018-07-27T10:25:38.562Z,36.70
2018-07-27T10:28:06.872Z,36.00
2018-07-27T10:30:35.169Z,34.70
2018-07-27T10:35:31.528Z,34.10
2018-07-27T10:37:59.787Z,35.00
2018-07-27T10:40:28.111Z,33.70
2018-07-27T10:42:56.398Z,35.20
2018-07-27T10:45:24.654Z,36.40
2018-07-27T10:47:52.999Z,35.30
2018-07-27T10:50:21.404Z,33.60
2018-07-27T10:55:17.724Z,35.20
2018-07-27T11:00:15.397Z,30.80
2018-07-27T11:02:43.741Z,31.70
2018-07-27T11:05:12.825Z,32.20
2018-07-27T11:07:41.256Z,30.80
2018-07-27T11:10:10.337Z,30.60
2018-07-27T11:12:38.683Z,33.50
2018-07-27T11:15:08.146Z,34.20
2018-07-27T11:17:36.433Z,33.90
2018-07-27T11:22:33.289Z,34.00
2018-07-27T11:25:01.703Z,33.80
2018-07-27T11:27:30.048Z,31.70
2018-07-27T11:29:58.500Z,30.10
2018-07-27T11:32:26.865Z,29.90
2018-07-27T11:34:55.138Z,29.60
2018-07-27T11:37:23.557Z,28.80
2018-07-27T11:39:51.801Z,28.60
2018-07-27T11:42:20.089Z,29.30
2018-07-27T11:44:48.327Z,29.80
2018-07-27T11:47:16.601Z,29.70
2018-07-27T11:49:44.817Z,30.30
2018-07-27T11:52:13.119Z,29.50
2018-07-27T11:54:41.367Z,30.00
2018-07-27T11:57:09.626Z,30.10
2018-07-27T11:59:37.906Z,31.60
2018-07-27T12:02:06.193Z,31.00
2018-07-27T12:04:34.447Z,30.20
2018-07-27T12:07:02.784Z,30.10
2018-07-27T12:09:31.021Z,30.70
2018-07-27T12:11:59.310Z,33.00
2018-07-27T12:14:27.978Z,32.70
2018-07-27T12:16:56.071Z,33.50
2018-07-27T12:21:52.368Z,32.90
2018-07-27T12:24:20.643Z,31.70
2018-07-27T12:26:48.956Z,30.00
2018-07-27T12:29:17.229Z,31.00
2018-07-27T12:31:45.509Z,32.30
2018-07-27T12:34:13.883Z,30.90
2018-07-27T12:36:42.153Z,32.70
2018-07-27T12:39:12.723Z,32.60
2018-07-27T12:41:42.496Z,34.00
2018-07-27T12:44:11.331Z,34.00
2018-07-27T12:46:40.274Z,35.50
2018-07-27T12:49:09.158Z,34.40
2018-07-27T12:51:37.548Z,33.70
2018-07-27T12:54:05.905Z,34.20
2018-07-27T12:56:34.250Z,34.30
2018-07-27T12:59:02.616Z,31.90
2018-07-27T13:01:30.890Z,31.70
2018-07-27T13:03:59.178Z,32.50
2018-07-27T13:06:27.527Z,33.60
2018-07-27T13:08:55.840Z,34.00
2018-07-27T13:11:24.144Z,32.10
2018-07-27T13:13:52.456Z,32.40
2018-07-27T13:16:20.748Z,30.90
2018-07-27T13:21:17.210Z,32.60
2018-07-27T13:23:54.361Z,31.90
2018-07-27T13:28:51.060Z,32.70
2018-07-27T13:31:24.053Z,33.40
2018-07-27T13:34:13.026Z,32.70
2018-07-27T13:36:41.343Z,33.40
2018-07-27T13:39:09.636Z,32.40
2018-07-27T13:41:37.916Z,33.40
2018-07-27T13:46:34.243Z,33.80
2018-07-27T13:49:02.499Z,32.90
2018-07-27T13:51:30.826Z,32.90
2018-07-27T13:56:27.046Z,31.70
2018-07-27T13:58:55.390Z,31.20
2018-07-27T14:01:23.741Z,32.00
2018-07-27T14:03:52.063Z,30.70
2018-07-27T14:06:20.384Z,32.40
2018-07-27T14:08:49.237Z,31.70
2018-07-27T14:11:17.538Z,30.60
2018-07-27T14:13:45.965Z,32.10
2018-07-27T14:16:14.290Z,31.80
2018-07-27T14:18:42.624Z,32.70
2018-07-27T14:21:10.994Z,31.90
2018-07-27T14:23:39.347Z,32.00
2018-07-27T14:26:07.710Z,32.10
2018-07-27T14:28:35.998Z,32.70
2018-07-27T14:31:04.252Z,32.10
2018-07-27T14:33:32.546Z,32.50
2018-07-27T14:38:28.798Z,32.30
2018-07-27T14:43:25.154Z,31.70
2018-07-27T14:48:21.695Z,32.80
2018-07-27T14:53:18.108Z,31.90
2018-07-27T14:55:46.531Z,32.50
2018-07-27T15:00:42.946Z,31.70
2018-07-27T15:03:11.261Z,32.80
2018-07-27T15:05:39.510Z,31.30
2018-07-27T15:08:07.822Z,31.80
2018-07-27T15:10:36.188Z,31.60
2018-07-27T15:13:04.445Z,31.90
2018-07-27T15:15:32.828Z,31.90
2018-07-27T15:18:01.175Z,29.80
2018-07-27T15:20:29.488Z,30.00
2018-07-27T15:25:25.840Z,31.70
2018-07-27T15:30:22.143Z,31.60
2018-07-27T15:32:50.439Z,31.80
2018-07-27T15:35:18.666Z,31.80
2018-07-27T15:37:46.927Z,32.00
2018-07-27T15:40:15.275Z,31.40
2018-07-27T15:42:43.661Z,31.40
2018-07-27T15:45:11.996Z,31.70
2018-07-27T15:47:40.539Z,31.30
2018-07-27T15:50:08.959Z,31.20
2018-07-27T15:52:37.257Z,32.00
2018-07-27T15:55:05.876Z,31.50
2018-07-27T16:00:02.342Z,32.00
2018-07-27T16:02:30.570Z,31.40
2018-07-27T16:04:58.882Z,32.00
2018-07-27T16:07:27.158Z,31.90
2018-07-27T16:12:23.483Z,31.90
2018-07-27T16:14:51.868Z,32.70
2018-07-27T16:19:48.468Z,33.00
2018-07-27T16:22:16.779Z,32.30
2018-07-27T16:24:45.187Z,32.70
2018-07-27T16:27:13.471Z,32.20
2018-07-27T16:32:09.819Z,33.00
2018-07-27T16:34:38.134Z,32.50
2018-07-27T16:37:06.417Z,32.20
2018-07-27T16:39:34.735Z,32.70
2018-07-27T16:42:03.011Z,33.40
2018-07-27T16:44:31.327Z,34.30
2018-07-27T16:46:59.658Z,32.20
2018-07-27T16:49:27.979Z,32.80
2018-07-27T16:51:56.294Z,31.60
2018-07-27T16:54:24.588Z,32.50
2018-07-27T16:56:52.878Z,32.40
2018-07-27T16:59:21.269Z,32.50
2018-07-27T17:04:17.766Z,33.60
2018-07-27T17:06:46.118Z,33.10
2018-07-27T17:09:14.486Z,33.40
2018-07-27T17:11:42.725Z,32.30
2018-07-27T17:14:11.012Z,32.40
2018-07-27T17:16:39.381Z,33.80
2018-07-27T17:19:07.708Z,33.30
2018-07-27T17:21:36.416Z,34.30
2018-07-27T17:24:04.771Z,34.50
2018-07-27T17:26:33.067Z,32.00
2018-07-27T17:29:01.395Z,35.00
2018-07-27T17:31:29.840Z,33.30
2018-07-27T17:33:58.182Z,33.40
2018-07-27T17:36:26.526Z,33.80
2018-07-27T17:38:54.805Z,33.40
2018-07-27T17:41:23.151Z,34.50
2018-07-27T17:43:51.432Z,33.00
2018-07-27T17:46:19.707Z,33.30
2018-07-27T17:48:47.978Z,33.20
2018-07-27T17:51:16.214Z,33.50
2018-07-27T17:53:44.517Z,32.90
2018-07-27T17:56:12.822Z,33.20
2018-07-27T17:58:41.077Z,33.60
2018-07-27T18:01:09.967Z,33.60
2018-07-27T18:03:38.247Z,33.60
2018-07-27T18:06:06.511Z,34.10
2018-07-27T18:08:34.806Z,34.30
2018-07-27T18:11:03.167Z,35.00
2018-07-27T18:13:31.507Z,35.50
2018-07-27T18:15:59.837Z,36.70
2018-07-27T18:18:28.141Z,36.70
2018-07-27T18:20:56.443Z,36.50
2018-07-27T18:23:24.706Z,36.90
2018-07-27T18:28:21.039Z,37.60
2018-07-27T18:30:49.352Z,37.20
2018-07-27T18:33:17.630Z,36.90
2018-07-27T18:35:45.927Z,36.70
2018-07-27T18:38:14.165Z,37.00
2018-07-27T18:43:10.501Z,38.50
2018-07-27T18:45:38.847Z,39.20
2018-07-27T18:48:07.148Z,39.30
2018-07-27T18:50:35.504Z,40.00
2018-07-27T18:53:03.846Z,41.20
2018-07-27T18:55:32.166Z,41.80
2018-07-27T18:58:00.422Z,42.00
2018-07-27T19:00:28.722Z,42.40
2018-07-27T19:02:56.986Z,42.80
2018-07-27T19:05:25.327Z,44.20
2018-07-27T19:07:53.603Z,44.00
2018-07-27T19:10:21.848Z,45.40
2018-07-27T19:12:50.087Z,45.80
2018-07-27T19:15:18.443Z,45.50
2018-07-27T19:17:46.769Z,47.10
2018-07-27T19:20:15.036Z,46.00
2018-07-27T19:22:43.378Z,48.00
2018-07-27T19:25:11.689Z,50.40
2018-07-27T19:27:39.958Z,49.60
2018-07-27T19:30:10.046Z,50.50
2018-07-27T19:32:38.274Z,49.60
2018-07-27T19:35:06.654Z,51.80
2018-07-27T19:37:35.026Z,51.00
2018-07-27T19:40:03.362Z,52.90
2018-07-27T19:42:31.845Z,54.20
2018-07-27T19:45:00.143Z,51.30
2018-07-27T19:47:28.476Z,52.00
2018-07-27T19:49:56.761Z,51.30
2018-07-27T19:52:25.026Z,52.00
2018-07-27T19:57:21.384Z,54.20
2018-07-27T19:59:49.707Z,54.90
2018-07-27T20:02:18.004Z,54.10
2018-07-27T20:04:46.342Z,54.50
2018-07-27T20:07:14.670Z,55.40
2018-07-27T20:09:42.942Z,55.30
2018-07-27T20:12:11.239Z,56.20
2018-07-27T20:14:39.473Z,56.10
2018-07-27T20:17:07.793Z,55.90
2018-07-27T20:22:04.144Z,55.00
2018-07-27T20:27:00.488Z,55.50
2018-07-27T20:29:28.844Z,55.50
2018-07-27T20:31:57.191Z,55.60
2018-07-27T20:34:25.453Z,56.20
2018-07-27T20:36:53.742Z,56.70
2018-07-27T20:39:22.022Z,56.80
2018-07-27T20:41:50.309Z,56.90
2018-07-27T20:44:18.624Z,56.80
2018-07-27T20:52:29.685Z,56.70
2018-07-27T20:54:57.982Z,56.80
2018-07-27T20:57:26.293Z,58.70
2018-07-27T20:59:54.616Z,58.50
2018-07-27T21:02:22.920Z,59.60
2018-07-27T21:04:51.188Z,60.40
2018-07-27T21:07:19.498Z,60.50
2018-07-27T21:09:47.853Z,61.80
2018-07-27T21:12:16.098Z,61.60
2018-07-27T21:14:44.393Z,63.10
2018-07-27T21:17:12.667Z,63.30
2018-07-27T21:19:41.004Z,64.10
2018-07-27T21:22:09.330Z,65.30
2018-07-27T21:24:37.705Z,66.40
2018-07-27T21:27:06.050Z,67.10
2018-07-27T21:29:34.340Z,67.20
2018-07-27T21:32:02.597Z,68.10
2018-07-27T21:34:33.844Z,69.20
2018-07-27T21:37:02.165Z,69.40
2018-07-27T21:39:30.413Z,69.60
2018-07-27T21:41:58.680Z,69.90
2018-07-27T21:44:27.001Z,71.30
2018-07-27T21:46:55.404Z,71.20
2018-07-27T21:51:51.813Z,70.70
2018-07-27T21:54:20.176Z,71.60
2018-07-27T21:56:48.506Z,70.60
2018-07-27T22:01:44.953Z,72.10
2018-07-27T22:04:13.274Z,72.40
2018-07-27T22:06:41.571Z,73.30
2018-07-27T22:09:10.437Z,72.60
2018-07-27T22:11:38.817Z,72.80
2018-07-27T22:14:07.118Z,73.40
2018-07-27T22:16:35.401Z,75.20
2018-07-27T22:19:03.721Z,75.90
2018-07-27T22:26:28.124Z,78.30
2018-07-27T22:28:56.420Z,81.20
2018-07-27T22:31:24.716Z,83.00
2018-07-27T22:33:52.905Z,82.50
2018-07-27T22:36:21.142Z,84.00
2018-07-27T22:41:17.289Z,82.80
2018-07-27T22:46:13.456Z,83.10
2018-07-27T22:48:41.609Z,83.20
2018-07-27T22:51:09.764Z,83.40
2018-07-27T22:53:37.913Z,85.50
2018-07-27T22:56:06.073Z,87.10
2018-07-27T22:58:34.228Z,85.90
2018-07-27T23:01:02.381Z,86.20
2018-07-27T23:03:30.541Z,86.80
2018-07-27T23:08:26.583Z,85.60
2018-07-27T23:13:22.653Z,87.50
2018-07-27T23:15:50.801Z,87.70
2018-07-27T23:20:46.868Z,86.40
2018-07-27T23:23:15.018Z,83.70
2018-07-27T23:28:11.195Z,83.00
2018-07-27T23:30:39.437Z,85.80
2018-07-27T23:35:36.397Z,83.70
2018-07-27T23:38:04.592Z,83.00
2018-07-27T23:40:32.820Z,83.40
2018-07-27T23:43:01.021Z,83.30
2018-07-27T23:47:57.172Z,83.40
2018-07-27T23:50:25.336Z,84.50
2018-07-27T23:55:22.917Z,86.70
2018-07-27T23:57:51.109Z,89.60
